sensor_id;sensor_type;location;lat;lon;timestamp;pressure;altitude;pressure_sealevel;temperature;humidity
75629;BME280;64213;46.452;16.994;2023-03-23T00:00:30;99720.19;;;9.45;68.31
75629;BME280;64213;46.452;16.994;2023-03-23T00:03:31;99721.63;;;9.37;68.48
75629;BME280;64213;46.452;16.994;2023-03-23T00:06:32;99720.22;;;9.31;68.95
75629;BME280;64213;46.452;16.994;2023-03-23T00:09:35;99724.38;;;9.35;67.66
75629;BME280;64213;46.452;16.994;2023-03-23T00:12:41;99716.66;;;9.59;65.64
75629;BME280;64213;46.452;16.994;2023-03-23T00:15:43;99712.50;;;9.82;64.49
75629;BME280;64213;46.452;16.994;2023-03-23T00:18:48;99711.59;;;9.96;63.73
75629;BME280;64213;46.452;16.994;2023-03-23T00:21:52;99706.84;;;10.01;63.29
75629;BME280;64213;46.452;16.994;2023-03-23T00:24:54;99709.09;;;10.20;62.63
75629;BME280;64213;46.452;16.994;2023-03-23T00:27:56;99706.91;;;10.39;61.59
75629;BME280;64213;46.452;16.994;2023-03-23T00:31:02;99707.75;;;10.53;60.99
75629;BME280;64213;46.452;16.994;2023-03-23T00:34:04;99708.84;;;10.63;60.88
75629;BME280;64213;46.452;16.994;2023-03-23T00:37:06;99704.25;;;10.65;60.42
75629;BME280;64213;46.452;16.994;2023-03-23T00:40:08;99699.59;;;10.68;60.12
75629;BME280;64213;46.452;16.994;2023-03-23T00:43:11;99698.75;;;10.68;60.14
75629;BME280;64213;46.452;16.994;2023-03-23T00:46:14;99693.56;;;10.79;59.50
75629;BME280;64213;46.452;16.994;2023-03-23T00:49:19;99689.97;;;10.80;59.41
75629;BME280;64213;46.452;16.994;2023-03-23T00:52:25;99691.84;;;10.78;59.57
75629;BME280;64213;46.452;16.994;2023-03-23T00:55:26;99689.44;;;10.75;59.62
75629;BME280;64213;46.452;16.994;2023-03-23T00:58:27;99681.94;;;10.69;59.80
75629;BME280;64213;46.452;16.994;2023-03-23T01:01:29;99685.75;;;10.65;60.14
75629;BME280;64213;46.452;16.994;2023-03-23T01:04:30;99686.81;;;10.50;60.87
75629;BME280;64213;46.452;16.994;2023-03-23T01:07:32;99687.87;;;10.34;61.18
75629;BME280;64213;46.452;16.994;2023-03-23T01:10:34;99677.16;;;10.23;61.63
75629;BME280;64213;46.452;16.994;2023-03-23T01:13:39;99676.53;;;10.07;62.24
75629;BME280;64213;46.452;16.994;2023-03-23T01:16:41;99676.38;;;9.95;63.26
75629;BME280;64213;46.452;16.994;2023-03-23T01:19:42;99670.12;;;9.71;64.68
75629;BME280;64213;46.452;16.994;2023-03-23T01:22:43;99670.16;;;9.57;65.16
75629;BME280;64213;46.452;16.994;2023-03-23T01:25:44;99670.44;;;9.79;63.75
75629;BME280;64213;46.452;16.994;2023-03-23T01:28:46;99661.59;;;9.93;63.02
75629;BME280;64213;46.452;16.994;2023-03-23T01:31:48;99670.28;;;10.08;62.46
75629;BME280;64213;46.452;16.994;2023-03-23T01:34:49;99664.38;;;10.17;62.42
75629;BME280;64213;46.452;16.994;2023-03-23T01:37:50;99663.84;;;10.12;62.17
75629;BME280;64213;46.452;16.994;2023-03-23T01:40:51;99667.75;;;10.19;61.98
75629;BME280;64213;46.452;16.994;2023-03-23T01:44:02;99662.06;;;10.25;61.83
75629;BME280;64213;46.452;16.994;2023-03-23T01:47:04;99658.28;;;10.29;61.61
75629;BME280;64213;46.452;16.994;2023-03-23T01:50:06;99656.59;;;10.28;61.54
75629;BME280;64213;46.452;16.994;2023-03-23T01:53:08;99658.47;;;10.26;61.72
75629;BME280;64213;46.452;16.994;2023-03-23T01:56:12;99656.75;;;10.25;61.48
75629;BME280;64213;46.452;16.994;2023-03-23T01:59:14;99652.63;;;10.21;61.64
75629;BME280;64213;46.452;16.994;2023-03-23T02:02:16;99653.69;;;10.18;62.06
75629;BME280;64213;46.452;16.994;2023-03-23T02:05:39;99652.00;;;10.17;62.68
75629;BME280;64213;46.452;16.994;2023-03-23T02:08:43;99649.03;;;10.09;62.29
75629;BME280;64213;46.452;16.994;2023-03-23T02:11:46;99642.50;;;10.02;62.76
75629;BME280;64213;46.452;16.994;2023-03-23T02:14:47;99642.78;;;9.97;62.58
75629;BME280;64213;46.452;16.994;2023-03-23T02:17:53;99641.50;;;9.90;62.71
75629;BME280;64213;46.452;16.994;2023-03-23T02:21:25;99642.69;;;9.86;63.14
75629;BME280;64213;46.452;16.994;2023-03-23T02:28:05;99645.78;;;9.66;64.33
75629;BME280;64213;46.452;16.994;2023-03-23T02:35:10;99653.16;;;9.48;64.85
75629;BME280;64213;46.452;16.994;2023-03-23T02:38:56;99642.87;;;9.43;64.84
75629;BME280;64213;46.452;16.994;2023-03-23T02:41:41;99643.84;;;9.42;65.15
75629;BME280;64213;46.452;16.994;2023-03-23T02:44:45;99642.44;;;9.37;65.05
75629;BME280;64213;46.452;16.994;2023-03-23T02:47:50;99645.28;;;9.34;65.69
75629;BME280;64213;46.452;16.994;2023-03-23T02:50:52;99642.00;;;9.30;65.71
75629;BME280;64213;46.452;16.994;2023-03-23T02:53:55;99645.19;;;9.35;65.48
75629;BME280;64213;46.452;16.994;2023-03-23T02:56:57;99637.16;;;9.37;65.31
75629;BME280;64213;46.452;16.994;2023-03-23T02:59:58;99632.00;;;9.35;65.38
75629;BME280;64213;46.452;16.994;2023-03-23T03:03:00;99632.41;;;9.29;65.64
75629;BME280;64213;46.452;16.994;2023-03-23T03:06:14;99635.87;;;9.29;65.83
75629;BME280;64213;46.452;16.994;2023-03-23T03:19:22;99646.06;;;9.21;65.62
75629;BME280;64213;46.452;16.994;2023-03-23T03:22:27;99638.06;;;9.23;65.47
75629;BME280;64213;46.452;16.994;2023-03-23T03:25:30;99640.72;;;9.23;65.07
75629;BME280;64213;46.452;16.994;2023-03-23T03:28:32;99634.78;;;9.19;65.21
75629;BME280;64213;46.452;16.994;2023-03-23T03:31:36;99635.37;;;9.10;65.65
75629;BME280;64213;46.452;16.994;2023-03-23T03:34:39;99641.91;;;9.04;66.13
75629;BME280;64213;46.452;16.994;2023-03-23T03:37:40;99634.19;;;9.01;66.12
75629;BME280;64213;46.452;16.994;2023-03-23T03:40:41;99636.34;;;8.95;66.16
75629;BME280;64213;46.452;16.994;2023-03-23T03:43:42;99630.91;;;8.83;66.92
75629;BME280;64213;46.452;16.994;2023-03-23T03:46:43;99627.81;;;8.77;67.17
75629;BME280;64213;46.452;16.994;2023-03-23T03:49:44;99630.84;;;8.71;67.14
75629;BME280;64213;46.452;16.994;2023-03-23T03:52:45;99631.44;;;8.61;67.66
75629;BME280;64213;46.452;16.994;2023-03-23T03:55:46;99636.34;;;8.53;68.02
75629;BME280;64213;46.452;16.994;2023-03-23T03:58:50;99637.94;;;8.42;68.97
75629;BME280;64213;46.452;16.994;2023-03-23T04:01:51;99628.78;;;8.19;70.30
75629;BME280;64213;46.452;16.994;2023-03-23T04:04:54;99640.16;;;8.05;70.40
75629;BME280;64213;46.452;16.994;2023-03-23T04:07:55;99643.59;;;7.91;71.03
75629;BME280;64213;46.452;16.994;2023-03-23T04:11:02;99648.38;;;7.84;71.23
75629;BME280;64213;46.452;16.994;2023-03-23T04:14:03;99645.78;;;7.68;72.07
75629;BME280;64213;46.452;16.994;2023-03-23T04:17:04;99644.75;;;7.57;72.75
75629;BME280;64213;46.452;16.994;2023-03-23T04:20:05;99648.16;;;7.43;73.56
75629;BME280;64213;46.452;16.994;2023-03-23T04:23:17;99648.88;;;7.31;73.99
75629;BME280;64213;46.452;16.994;2023-03-23T04:26:22;99653.03;;;7.19;74.43
75629;BME280;64213;46.452;16.994;2023-03-23T04:29:23;99649.75;;;7.15;74.76
75629;BME280;64213;46.452;16.994;2023-03-23T04:32:25;99647.34;;;7.11;74.86
75629;BME280;64213;46.452;16.994;2023-03-23T04:35:29;99659.31;;;7.16;73.86
75629;BME280;64213;46.452;16.994;2023-03-23T04:38:30;99652.19;;;7.18;74.56
75629;BME280;64213;46.452;16.994;2023-03-23T04:41:33;99656.84;;;7.13;74.71
75629;BME280;64213;46.452;16.994;2023-03-23T04:44:34;99658.81;;;7.10;75.54
75629;BME280;64213;46.452;16.994;2023-03-23T04:47:37;99652.88;;;7.06;75.11
75629;BME280;64213;46.452;16.994;2023-03-23T04:50:40;99653.38;;;7.29;73.83
75629;BME280;64213;46.452;16.994;2023-03-23T04:53:41;99647.06;;;7.47;72.79
75629;BME280;64213;46.452;16.994;2023-03-23T04:56:43;99651.06;;;7.68;72.56
75629;BME280;64213;46.452;16.994;2023-03-23T04:59:44;99645.06;;;7.81;71.34
75629;BME280;64213;46.452;16.994;2023-03-23T05:02:46;99647.88;;;7.78;71.51
75629;BME280;64213;46.452;16.994;2023-03-23T05:05:47;99657.63;;;7.61;72.78
75629;BME280;64213;46.452;16.994;2023-03-23T05:08:52;99660.72;;;7.54;73.33
75629;BME280;64213;46.452;16.994;2023-03-23T05:11:53;99663.94;;;7.43;73.91
75629;BME280;64213;46.452;16.994;2023-03-23T05:14:54;99670.66;;;7.33;74.50
75629;BME280;64213;46.452;16.994;2023-03-23T05:17:55;99677.03;;;7.29;74.65
75629;BME280;64213;46.452;16.994;2023-03-23T05:21:00;99681.63;;;7.41;73.98
75629;BME280;64213;46.452;16.994;2023-03-23T05:24:01;99677.44;;;7.83;71.82
75629;BME280;64213;46.452;16.994;2023-03-23T05:27:02;99686.69;;;7.60;73.74
75629;BME280;64213;46.452;16.994;2023-03-23T05:30:05;99680.91;;;7.53;74.09
75629;BME280;64213;46.452;16.994;2023-03-23T05:33:07;99693.31;;;7.51;74.54
75629;BME280;64213;46.452;16.994;2023-03-23T05:36:08;99693.31;;;7.51;74.64
75629;BME280;64213;46.452;16.994;2023-03-23T05:39:12;99696.00;;;7.50;75.19
75629;BME280;64213;46.452;16.994;2023-03-23T05:42:13;99700.38;;;7.51;75.12
75629;BME280;64213;46.452;16.994;2023-03-23T05:45:14;99703.84;;;7.51;75.59
75629;BME280;64213;46.452;16.994;2023-03-23T05:48:17;99704.44;;;7.56;75.22
75629;BME280;64213;46.452;16.994;2023-03-23T05:51:18;99710.19;;;7.63;75.35
75629;BME280;64213;46.452;16.994;2023-03-23T05:54:19;99709.91;;;7.67;75.59
75629;BME280;64213;46.452;16.994;2023-03-23T05:57:20;99706.00;;;7.75;75.48
75629;BME280;64213;46.452;16.994;2023-03-23T06:00:24;99703.41;;;7.89;74.98
75629;BME280;64213;46.452;16.994;2023-03-23T06:03:25;99701.78;;;8.16;71.99
75629;BME280;64213;46.452;16.994;2023-03-23T06:06:27;99707.09;;;8.45;70.72
75629;BME280;64213;46.452;16.994;2023-03-23T06:09:29;99712.03;;;8.66;70.32
75629;BME280;64213;46.452;16.994;2023-03-23T06:12:30;99702.00;;;8.99;68.89
75629;BME280;64213;46.452;16.994;2023-03-23T06:15:32;99713.22;;;9.44;67.58
75629;BME280;64213;46.452;16.994;2023-03-23T06:18:33;99706.19;;;9.97;67.13
75629;BME280;64213;46.452;16.994;2023-03-23T06:21:34;99705.63;;;10.70;63.70
75629;BME280;64213;46.452;16.994;2023-03-23T06:24:36;99703.06;;;11.31;61.83
75629;BME280;64213;46.452;16.994;2023-03-23T06:27:37;99708.78;;;11.86;60.07
75629;BME280;64213;46.452;16.994;2023-03-23T06:30:38;99702.91;;;12.29;59.43
75629;BME280;64213;46.452;16.994;2023-03-23T06:33:39;99706.94;;;12.79;57.48
75629;BME280;64213;46.452;16.994;2023-03-23T06:36:41;99705.69;;;13.29;56.13
75629;BME280;64213;46.452;16.994;2023-03-23T06:39:44;99712.94;;;13.38;55.15
75629;BME280;64213;46.452;16.994;2023-03-23T06:42:46;99713.72;;;13.61;54.78
75629;BME280;64213;46.452;16.994;2023-03-23T06:45:47;99712.78;;;13.83;53.86
75629;BME280;64213;46.452;16.994;2023-03-23T06:48:49;99720.44;;;13.97;52.81
75629;BME280;64213;46.452;16.994;2023-03-23T06:51:50;99715.84;;;13.99;52.99
75629;BME280;64213;46.452;16.994;2023-03-23T06:54:52;99715.28;;;14.37;51.74
75629;BME280;64213;46.452;16.994;2023-03-23T06:57:52;99724.88;;;14.29;52.27
75629;BME280;64213;46.452;16.994;2023-03-23T07:00:55;99723.19;;;14.70;50.28
75629;BME280;64213;46.452;16.994;2023-03-23T07:03:59;99730.38;;;15.00;49.78
75629;BME280;64213;46.452;16.994;2023-03-23T07:07:00;99728.59;;;15.20;50.23
75629;BME280;64213;46.452;16.994;2023-03-23T07:10:03;99730.31;;;15.40;48.82
75629;BME280;64213;46.452;16.994;2023-03-23T07:13:05;99734.50;;;15.73;48.99
75629;BME280;64213;46.452;16.994;2023-03-23T07:16:06;99740.25;;;15.88;47.36
75629;BME280;64213;46.452;16.994;2023-03-23T07:19:08;99745.03;;;15.94;48.07
75629;BME280;64213;46.452;16.994;2023-03-23T07:22:09;99747.13;;;16.00;47.86
75629;BME280;64213;46.452;16.994;2023-03-23T07:25:11;99741.97;;;16.09;47.50
75629;BME280;64213;46.452;16.994;2023-03-23T07:28:12;99752.62;;;16.28;47.14
75629;BME280;64213;46.452;16.994;2023-03-23T07:31:13;99736.94;;;16.62;44.91
75629;BME280;64213;46.452;16.994;2023-03-23T07:34:14;99746.56;;;17.30;44.81
75629;BME280;64213;46.452;16.994;2023-03-23T07:37:15;99750.28;;;16.82;45.42
75629;BME280;64213;46.452;16.994;2023-03-23T07:40:16;99740.47;;;17.10;44.67
75629;BME280;64213;46.452;16.994;2023-03-23T07:43:18;99736.59;;;17.50;43.84
75629;BME280;64213;46.452;16.994;2023-03-23T07:46:20;99745.72;;;17.57;42.75
75629;BME280;64213;46.452;16.994;2023-03-23T07:49:20;99750.88;;;17.40;43.59
75629;BME280;64213;46.452;16.994;2023-03-23T07:52:22;99753.03;;;17.55;43.75
75629;BME280;64213;46.452;16.994;2023-03-23T07:55:24;99745.09;;;17.91;43.43
75629;BME280;64213;46.452;16.994;2023-03-23T07:58:25;99742.66;;;17.97;42.92
75629;BME280;64213;46.452;16.994;2023-03-23T08:01:27;99741.97;;;17.77;42.62
75629;BME280;64213;46.452;16.994;2023-03-23T08:04:28;99739.91;;;18.51;41.56
75629;BME280;64213;46.452;16.994;2023-03-23T08:07:29;99744.66;;;19.17;40.61
75629;BME280;64213;46.452;16.994;2023-03-23T08:10:31;99751.44;;;19.80;39.90
75629;BME280;64213;46.452;16.994;2023-03-23T08:13:32;99737.88;;;20.23;38.86
75629;BME280;64213;46.452;16.994;2023-03-23T08:16:36;99751.84;;;19.09;40.58
75629;BME280;64213;46.452;16.994;2023-03-23T08:19:37;99748.00;;;19.62;39.92
75629;BME280;64213;46.452;16.994;2023-03-23T08:22:42;99748.63;;;20.31;38.07
75629;BME280;64213;46.452;16.994;2023-03-23T08:25:45;99744.59;;;20.43;38.46
75629;BME280;64213;46.452;16.994;2023-03-23T08:28:46;99759.19;;;19.91;39.28
75629;BME280;64213;46.452;16.994;2023-03-23T08:31:48;99756.69;;;19.05;40.63
75629;BME280;64213;46.452;16.994;2023-03-23T08:34:49;99750.81;;;19.10;41.50
75629;BME280;64213;46.452;16.994;2023-03-23T08:37:50;99756.63;;;19.73;39.74
75629;BME280;64213;46.452;16.994;2023-03-23T08:41:00;99752.53;;;19.61;40.34
75629;BME280;64213;46.452;16.994;2023-03-23T08:44:02;99756.34;;;20.01;38.51
75629;BME280;64213;46.452;16.994;2023-03-23T08:47:04;99753.78;;;19.33;40.02
75629;BME280;64213;46.452;16.994;2023-03-23T08:50:08;99753.66;;;20.09;38.37
75629;BME280;64213;46.452;16.994;2023-03-23T08:53:13;99752.16;;;20.23;37.97
75629;BME280;64213;46.452;16.994;2023-03-23T08:56:14;99759.69;;;20.77;36.99
75629;BME280;64213;46.452;16.994;2023-03-23T08:59:15;99753.31;;;20.37;37.82
75629;BME280;64213;46.452;16.994;2023-03-23T09:02:16;99746.94;;;20.46;37.84
75629;BME280;64213;46.452;16.994;2023-03-23T09:05:20;99749.25;;;20.90;37.54
75629;BME280;64213;46.452;16.994;2023-03-23T09:08:22;99742.09;;;21.61;36.28
75629;BME280;64213;46.452;16.994;2023-03-23T09:11:23;99742.59;;;20.53;38.03
75629;BME280;64213;46.452;16.994;2023-03-23T09:14:24;99736.03;;;20.39;38.51
75629;BME280;64213;46.452;16.994;2023-03-23T09:17:25;99737.91;;;21.58;36.72
75629;BME280;64213;46.452;16.994;2023-03-23T09:20:27;99739.78;;;21.02;37.18
75629;BME280;64213;46.452;16.994;2023-03-23T09:23:29;99739.22;;;20.10;39.14
75629;BME280;64213;46.452;16.994;2023-03-23T09:26:31;99746.44;;;20.34;38.79
75629;BME280;64213;46.452;16.994;2023-03-23T09:29:32;99736.38;;;20.36;38.72
75629;BME280;64213;46.452;16.994;2023-03-23T09:32:34;99741.03;;;19.93;39.68
75629;BME280;64213;46.452;16.994;2023-03-23T09:35:36;99729.91;;;20.95;38.14
75629;BME280;64213;46.452;16.994;2023-03-23T09:38:39;99737.91;;;22.04;35.44
75629;BME280;64213;46.452;16.994;2023-03-23T09:45:07;99731.53;;;23.26;32.59
75629;BME280;64213;46.452;16.994;2023-03-23T09:54:51;99718.75;;;21.14;35.83
75629;BME280;64213;46.452;16.994;2023-03-23T09:58:03;99715.31;;;21.68;35.01
75629;BME280;64213;46.452;16.994;2023-03-23T10:01:26;99704.75;;;22.27;34.26
75629;BME280;64213;46.452;16.994;2023-03-23T10:04:34;99706.72;;;22.33;33.92
75629;BME280;64213;46.452;16.994;2023-03-23T10:07:38;99702.38;;;22.09;34.75
75629;BME280;64213;46.452;16.994;2023-03-23T10:10:51;99697.47;;;23.39;33.08
75629;BME280;64213;46.452;16.994;2023-03-23T10:17:17;99685.72;;;22.28;34.56
75629;BME280;64213;46.452;16.994;2023-03-23T10:24:00;99680.13;;;21.69;35.53
75629;BME280;64213;46.452;16.994;2023-03-23T10:33:25;99678.38;;;20.75;37.60
75629;BME280;64213;46.452;16.994;2023-03-23T10:39:44;99658.44;;;22.09;35.56
75629;BME280;64213;46.452;16.994;2023-03-23T10:42:47;99667.06;;;22.04;35.88
75629;BME280;64213;46.452;16.994;2023-03-23T10:45:54;99647.50;;;21.87;35.75
75629;BME280;64213;46.452;16.994;2023-03-23T10:48:58;99654.91;;;22.31;35.68
75629;BME280;64213;46.452;16.994;2023-03-23T10:55:10;99644.13;;;22.75;34.75
75629;BME280;64213;46.452;16.994;2023-03-23T10:58:21;99642.91;;;21.19;37.52
75629;BME280;64213;46.452;16.994;2023-03-23T11:01:34;99648.03;;;21.59;36.91
75629;BME280;64213;46.452;16.994;2023-03-23T11:04:38;99647.44;;;22.33;35.91
75629;BME280;64213;46.452;16.994;2023-03-23T11:07:39;99645.91;;;21.78;36.47
75629;BME280;64213;46.452;16.994;2023-03-23T11:10:47;99640.94;;;22.27;35.68
75629;BME280;64213;46.452;16.994;2023-03-23T11:13:58;99648.84;;;22.29;35.07
75629;BME280;64213;46.452;16.994;2023-03-23T11:17:02;99641.88;;;23.09;34.10
75629;BME280;64213;46.452;16.994;2023-03-23T11:20:12;99628.59;;;23.29;34.01
75629;BME280;64213;46.452;16.994;2023-03-23T11:23:29;99623.72;;;23.75;33.03
75629;BME280;64213;46.452;16.994;2023-03-23T11:26:35;99627.25;;;24.25;32.45
75629;BME280;64213;46.452;16.994;2023-03-23T11:29:56;99630.19;;;24.58;31.85
75629;BME280;64213;46.452;16.994;2023-03-23T11:33:01;99631.44;;;23.42;33.54
75629;BME280;64213;46.452;16.994;2023-03-23T11:36:04;99618.53;;;22.86;34.84
75629;BME280;64213;46.452;16.994;2023-03-23T11:39:24;99630.19;;;22.72;34.79
75629;BME280;64213;46.452;16.994;2023-03-23T11:42:42;99624.12;;;22.70;34.71
75629;BME280;64213;46.452;16.994;2023-03-23T11:46:01;99615.41;;;23.19;34.46
75629;BME280;64213;46.452;16.994;2023-03-23T11:49:18;99617.56;;;23.24;34.23
75629;BME280;64213;46.452;16.994;2023-03-23T11:52:51;99610.50;;;23.44;33.97
75629;BME280;64213;46.452;16.994;2023-03-23T11:58:56;99602.97;;;23.61;33.64
75629;BME280;64213;46.452;16.994;2023-03-23T12:05:43;99608.88;;;22.92;34.52
75629;BME280;64213;46.452;16.994;2023-03-23T12:08:59;99603.34;;;23.15;33.90
75629;BME280;64213;46.452;16.994;2023-03-23T12:21:50;99589.81;;;22.79;34.15
75629;BME280;64213;46.452;16.994;2023-03-23T12:31:36;99583.50;;;22.71;34.68
75629;BME280;64213;46.452;16.994;2023-03-23T12:38:27;99579.03;;;21.67;36.29
75629;BME280;64213;46.452;16.994;2023-03-23T12:41:59;99572.97;;;21.65;36.41
75629;BME280;64213;46.452;16.994;2023-03-23T12:48:25;99565.56;;;22.79;34.06
75629;BME280;64213;46.452;16.994;2023-03-23T12:51:35;99563.53;;;22.21;34.82
75629;BME280;64213;46.452;16.994;2023-03-23T12:55:15;99558.81;;;22.38;34.24
75629;BME280;64213;46.452;16.994;2023-03-23T12:58:20;99564.59;;;22.86;33.29
75629;BME280;64213;46.452;16.994;2023-03-23T13:01:30;99555.22;;;22.82;33.37
75629;BME280;64213;46.452;16.994;2023-03-23T13:04:37;99550.19;;;22.94;33.44
75629;BME280;64213;46.452;16.994;2023-03-23T13:07:47;99548.34;;;23.59;32.60
75629;BME280;64213;46.452;16.994;2023-03-23T13:10:50;99556.34;;;23.46;32.59
75629;BME280;64213;46.452;16.994;2023-03-23T13:13:55;99541.97;;;23.66;32.10
75629;BME280;64213;46.452;16.994;2023-03-23T13:23:56;99531.31;;;24.49;30.34
75629;BME280;64213;46.452;16.994;2023-03-23T13:26:59;99544.94;;;24.76;30.36
75629;BME280;64213;46.452;16.994;2023-03-23T13:30:01;99536.81;;;25.37;29.52
75629;BME280;64213;46.452;16.994;2023-03-23T13:33:06;99539.84;;;25.08;29.71
75629;BME280;64213;46.452;16.994;2023-03-23T13:36:13;99526.91;;;24.07;31.38
75629;BME280;64213;46.452;16.994;2023-03-23T13:39:30;99527.44;;;23.67;31.92
75629;BME280;64213;46.452;16.994;2023-03-23T13:42:33;99521.53;;;23.57;31.86
75629;BME280;64213;46.452;16.994;2023-03-23T13:45:43;99537.66;;;23.29;32.35
75629;BME280;64213;46.452;16.994;2023-03-23T13:52:18;99531.88;;;23.32;31.55
75629;BME280;64213;46.452;16.994;2023-03-23T13:58:29;99526.44;;;23.04;31.94
75629;BME280;64213;46.452;16.994;2023-03-23T14:01:33;99515.97;;;22.94;32.37
75629;BME280;64213;46.452;16.994;2023-03-23T14:04:36;99521.87;;;22.90;32.39
75629;BME280;64213;46.452;16.994;2023-03-23T14:11:17;99505.97;;;23.59;31.25
75629;BME280;64213;46.452;16.994;2023-03-23T14:14:25;99510.25;;;23.04;31.89
75629;BME280;64213;46.452;16.994;2023-03-23T14:17:29;99506.41;;;23.13;31.82
75629;BME280;64213;46.452;16.994;2023-03-23T14:20:33;99500.09;;;23.49;30.85
75629;BME280;64213;46.452;16.994;2023-03-23T14:23:35;99487.09;;;24.22;29.72
75629;BME280;64213;46.452;16.994;2023-03-23T14:26:36;99481.81;;;24.49;29.48
75629;BME280;64213;46.452;16.994;2023-03-23T14:29:38;99481.72;;;24.83;29.17
75629;BME280;64213;46.452;16.994;2023-03-23T14:32:39;99482.94;;;24.26;30.03
75629;BME280;64213;46.452;16.994;2023-03-23T14:35:42;99480.31;;;23.70;30.97
75629;BME280;64213;46.452;16.994;2023-03-23T14:38:44;99473.03;;;23.42;31.31
75629;BME280;64213;46.452;16.994;2023-03-23T14:41:45;99472.81;;;23.94;30.63
75629;BME280;64213;46.452;16.994;2023-03-23T14:44:48;99464.12;;;24.46;29.84
75629;BME280;64213;46.452;16.994;2023-03-23T14:47:52;99478.31;;;24.62;29.49
75629;BME280;64213;46.452;16.994;2023-03-23T14:50:59;99476.88;;;24.66;29.51
75629;BME280;64213;46.452;16.994;2023-03-23T14:54:07;99475.84;;;23.34;31.22
75629;BME280;64213;46.452;16.994;2023-03-23T15:00:20;99480.56;;;22.46;33.10
75629;BME280;64213;46.452;16.994;2023-03-23T15:03:22;99479.97;;;22.36;33.22
75629;BME280;64213;46.452;16.994;2023-03-23T15:06:28;99479.41;;;21.81;34.33
75629;BME280;64213;46.452;16.994;2023-03-23T15:09:31;99476.00;;;22.32;33.51
75629;BME280;64213;46.452;16.994;2023-03-23T15:12:33;99469.59;;;23.06;32.49
75629;BME280;64213;46.452;16.994;2023-03-23T15:15:36;99466.28;;;23.32;32.11
75629;BME280;64213;46.452;16.994;2023-03-23T15:18:38;99466.34;;;23.38;31.98
75629;BME280;64213;46.452;16.994;2023-03-23T15:21:53;99463.41;;;23.33;32.29
75629;BME280;64213;46.452;16.994;2023-03-23T15:31:05;99453.78;;;23.03;32.73
75629;BME280;64213;46.452;16.994;2023-03-23T15:34:13;99465.72;;;22.93;32.86
75629;BME280;64213;46.452;16.994;2023-03-23T15:37:23;99468.72;;;22.47;33.48
75629;BME280;64213;46.452;16.994;2023-03-23T15:40:27;99468.78;;;22.18;33.98
75629;BME280;64213;46.452;16.994;2023-03-23T15:43:34;99478.03;;;21.71;34.62
75629;BME280;64213;46.452;16.994;2023-03-23T15:46:47;99474.72;;;21.46;35.13
75629;BME280;64213;46.452;16.994;2023-03-23T15:50:01;99478.56;;;21.28;35.61
75629;BME280;64213;46.452;16.994;2023-03-23T15:53:25;99475.25;;;21.03;36.80
75629;BME280;64213;46.452;16.994;2023-03-23T15:56:27;99483.22;;;20.88;36.80
75629;BME280;64213;46.452;16.994;2023-03-23T15:59:30;99481.69;;;20.94;36.80
75629;BME280;64213;46.452;16.994;2023-03-23T16:02:32;99488.69;;;21.03;36.61
75629;BME280;64213;46.452;16.994;2023-03-23T16:05:36;99493.16;;;21.11;36.50
75629;BME280;64213;46.452;16.994;2023-03-23T16:08:38;99482.50;;;21.18;36.33
75629;BME280;64213;46.452;16.994;2023-03-23T16:11:54;99487.06;;;21.17;36.48
75629;BME280;64213;46.452;16.994;2023-03-23T16:14:56;99479.72;;;21.11;36.59
75629;BME280;64213;46.452;16.994;2023-03-23T16:17:58;99479.28;;;20.99;36.99
75629;BME280;64213;46.452;16.994;2023-03-23T16:21:00;99494.56;;;20.76;37.53
75629;BME280;64213;46.452;16.994;2023-03-23T16:24:04;99487.31;;;20.45;38.18
75629;BME280;64213;46.452;16.994;2023-03-23T16:27:08;99484.91;;;20.19;38.67
75629;BME280;64213;46.452;16.994;2023-03-23T16:30:23;99487.00;;;20.01;39.15
75629;BME280;64213;46.452;16.994;2023-03-23T16:33:26;99482.97;;;19.96;39.24
75629;BME280;64213;46.452;16.994;2023-03-23T16:36:28;99484.03;;;19.79;39.82
75629;BME280;64213;46.452;16.994;2023-03-23T16:39:30;99493.44;;;19.75;39.59
75629;BME280;64213;46.452;16.994;2023-03-23T16:42:32;99482.53;;;19.60;40.32
75629;BME280;64213;46.452;16.994;2023-03-23T16:45:37;99480.84;;;19.43;40.63
75629;BME280;64213;46.452;16.994;2023-03-23T16:48:39;99477.19;;;19.27;40.91
75629;BME280;64213;46.452;16.994;2023-03-23T16:51:42;99480.22;;;19.16;41.52
75629;BME280;64213;46.452;16.994;2023-03-23T16:54:44;99488.06;;;19.10;41.55
75629;BME280;64213;46.452;16.994;2023-03-23T16:57:46;99482.37;;;19.04;41.82
75629;BME280;64213;46.452;16.994;2023-03-23T17:00:50;99489.41;;;18.97;42.02
75629;BME280;64213;46.452;16.994;2023-03-23T17:03:54;99495.09;;;18.86;42.15
75629;BME280;64213;46.452;16.994;2023-03-23T17:06:57;99488.03;;;18.77;42.30
75629;BME280;64213;46.452;16.994;2023-03-23T17:10:01;99491.50;;;18.69;42.45
75629;BME280;64213;46.452;16.994;2023-03-23T17:13:04;99488.81;;;18.61;42.83
75629;BME280;64213;46.452;16.994;2023-03-23T17:16:07;99499.44;;;18.36;44.08
75629;BME280;64213;46.452;16.994;2023-03-23T17:19:09;99495.03;;;18.19;44.67
75629;BME280;64213;46.452;16.994;2023-03-23T17:22:12;99498.94;;;17.99;45.06
75629;BME280;64213;46.452;16.994;2023-03-23T17:25:14;99499.53;;;17.84;45.27
75629;BME280;64213;46.452;16.994;2023-03-23T17:28:17;99499.22;;;17.70;45.42
75629;BME280;64213;46.452;16.994;2023-03-23T17:31:21;99498.81;;;17.56;45.65
75629;BME280;64213;46.452;16.994;2023-03-23T17:34:24;99492.41;;;17.49;45.76
75629;BME280;64213;46.452;16.994;2023-03-23T17:37:28;99495.84;;;17.41;45.83
75629;BME280;64213;46.452;16.994;2023-03-23T17:40:31;99492.66;;;17.38;45.93
75629;BME280;64213;46.452;16.994;2023-03-23T17:43:33;99492.59;;;17.30;46.15
75629;BME280;64213;46.452;16.994;2023-03-23T17:46:37;99499.84;;;17.19;46.71
75629;BME280;64213;46.452;16.994;2023-03-23T17:49:40;99504.44;;;17.09;46.90